sensor_id;sensor_type;location;lat;lon;timestamp;P1;durP1;ratioP1;P2;durP2;ratioP2
31872;SDS011;22407;42.820;23.374;2023-04-15T00:00:09;10.77;;;4.03;;
31872;SDS011;22407;42.820;23.374;2023-04-15T00:02:35;11.00;;;4.68;;
31872;SDS011;22407;42.820;23.374;2023-04-15T00:05:01;10.13;;;4.18;;
31872;SDS011;22407;42.820;23.374;2023-04-15T00:07:26;11.33;;;4.60;;
31872;SDS011;22407;42.820;23.374;2023-04-15T00:09:51;13.63;;;4.77;;
31872;SDS011;22407;42.820;23.374;2023-04-15T00:12:19;11.27;;;5.03;;
31872;SDS011;22407;42.820;23.374;2023-04-15T00:14:45;16.00;;;6.07;;
31872;SDS011;22407;42.820;23.374;2023-04-15T00:17:10;10.30;;;4.77;;
31872;SDS011;22407;42.820;23.374;2023-04-15T00:19:36;11.90;;;4.83;;
31872;SDS011;22407;42.820;23.374;2023-04-15T00:22:02;11.45;;;4.47;;
31872;SDS011;22407;42.820;23.374;2023-04-15T00:24:27;11.23;;;4.43;;
31872;SDS011;22407;42.820;23.374;2023-04-15T00:26:53;12.57;;;4.22;;
31872;SDS011;22407;42.820;23.374;2023-04-15T00:29:18;8.70;;;3.47;;
31872;SDS011;22407;42.820;23.374;2023-04-15T00:31:44;10.83;;;3.50;;
31872;SDS011;22407;42.820;23.374;2023-04-15T00:34:10;6.95;;;2.65;;
31872;SDS011;22407;42.820;23.374;2023-04-15T00:36:35;9.53;;;3.10;;
31872;SDS011;22407;42.820;23.374;2023-04-15T00:39:00;12.07;;;4.57;;
31872;SDS011;22407;42.820;23.374;2023-04-15T00:41:27;11.13;;;4.10;;
31872;SDS011;22407;42.820;23.374;2023-04-15T00:43:52;8.83;;;3.50;;
31872;SDS011;22407;42.820;23.374;2023-04-15T00:46:18;9.03;;;3.47;;
31872;SDS011;22407;42.820;23.374;2023-04-15T00:48:45;8.88;;;3.55;;
31872;SDS011;22407;42.820;23.374;2023-04-15T00:51:11;7.72;;;3.33;;
31872;SDS011;22407;42.820;23.374;2023-04-15T00:53:37;10.82;;;3.92;;
31872;SDS011;22407;42.820;23.374;2023-04-15T00:56:02;8.30;;;3.70;;
31872;SDS011;22407;42.820;23.374;2023-04-15T00:58:27;10.53;;;3.53;;
31872;SDS011;22407;42.820;23.374;2023-04-15T01:00:55;8.90;;;3.10;;
31872;SDS011;22407;42.820;23.374;2023-04-15T01:03:21;8.32;;;2.97;;
31872;SDS011;22407;42.820;23.374;2023-04-15T01:05:46;5.97;;;2.50;;
31872;SDS011;22407;42.820;23.374;2023-04-15T01:08:12;18.63;;;5.60;;
31872;SDS011;22407;42.820;23.374;2023-04-15T01:10:37;13.88;;;4.47;;
31872;SDS011;22407;42.820;23.374;2023-04-15T01:13:03;19.00;;;6.30;;
31872;SDS011;22407;42.820;23.374;2023-04-15T01:15:29;11.13;;;4.43;;
31872;SDS011;22407;42.820;23.374;2023-04-15T01:17:54;10.50;;;4.30;;
31872;SDS011;22407;42.820;23.374;2023-04-15T01:20:21;15.70;;;6.60;;
31872;SDS011;22407;42.820;23.374;2023-04-15T01:22:47;12.00;;;4.45;;
31872;SDS011;22407;42.820;23.374;2023-04-15T01:25:16;11.10;;;4.37;;
31872;SDS011;22407;42.820;23.374;2023-04-15T01:27:42;10.70;;;4.07;;
31872;SDS011;22407;42.820;23.374;2023-04-15T01:30:07;12.37;;;5.07;;
31872;SDS011;22407;42.820;23.374;2023-04-15T01:32:33;11.85;;;5.10;;
31872;SDS011;22407;42.820;23.374;2023-04-15T01:34:58;13.13;;;5.23;;
31872;SDS011;22407;42.820;23.374;2023-04-15T01:37:24;17.07;;;6.03;;
31872;SDS011;22407;42.820;23.374;2023-04-15T01:39:50;13.32;;;5.47;;
31872;SDS011;22407;42.820;23.374;2023-04-15T01:42:15;22.20;;;8.27;;
31872;SDS011;22407;42.820;23.374;2023-04-15T01:44:41;14.07;;;5.13;;
31872;SDS011;22407;42.820;23.374;2023-04-15T01:47:06;8.93;;;3.97;;
31872;SDS011;22407;42.820;23.374;2023-04-15T01:49:31;9.43;;;4.43;;
31872;SDS011;22407;42.820;23.374;2023-04-15T01:51:56;9.77;;;4.23;;
31872;SDS011;22407;42.820;23.374;2023-04-15T01:54:22;10.17;;;4.40;;
31872;SDS011;22407;42.820;23.374;2023-04-15T01:56:47;8.63;;;4.00;;
31872;SDS011;22407;42.820;23.374;2023-04-15T01:59:13;12.47;;;4.20;;
31872;SDS011;22407;42.820;23.374;2023-04-15T02:01:38;11.73;;;4.37;;
31872;SDS011;22407;42.820;23.374;2023-04-15T02:04:03;16.97;;;5.30;;
31872;SDS011;22407;42.820;23.374;2023-04-15T02:06:29;11.10;;;5.40;;
31872;SDS011;22407;42.820;23.374;2023-04-15T02:08:54;11.53;;;4.17;;
31872;SDS011;22407;42.820;23.374;2023-04-15T02:11:19;10.77;;;3.70;;
31872;SDS011;22407;42.820;23.374;2023-04-15T02:13:45;9.97;;;3.20;;
31872;SDS011;22407;42.820;23.374;2023-04-15T02:16:17;8.33;;;3.37;;
31872;SDS011;22407;42.820;23.374;2023-04-15T02:18:43;11.45;;;3.80;;
31872;SDS011;22407;42.820;23.374;2023-04-15T02:21:09;12.25;;;4.57;;
31872;SDS011;22407;42.820;23.374;2023-04-15T02:23:34;9.43;;;3.57;;
31872;SDS011;22407;42.820;23.374;2023-04-15T02:25:59;10.03;;;3.90;;
31872;SDS011;22407;42.820;23.374;2023-04-15T02:28:25;12.15;;;4.10;;
31872;SDS011;22407;42.820;23.374;2023-04-15T02:30:51;10.27;;;4.60;;
31872;SDS011;22407;42.820;23.374;2023-04-15T02:33:18;9.77;;;3.93;;
31872;SDS011;22407;42.820;23.374;2023-04-15T02:35:43;8.48;;;3.60;;
31872;SDS011;22407;42.820;23.374;2023-04-15T02:38:10;9.00;;;3.40;;
31872;SDS011;22407;42.820;23.374;2023-04-15T02:40:35;9.80;;;3.28;;
31872;SDS011;22407;42.820;23.374;2023-04-15T02:43:01;8.63;;;3.38;;
31872;SDS011;22407;42.820;23.374;2023-04-15T02:45:26;7.73;;;2.80;;
31872;SDS011;22407;42.820;23.374;2023-04-15T02:47:52;7.90;;;3.43;;
31872;SDS011;22407;42.820;23.374;2023-04-15T02:50:17;8.97;;;3.57;;
31872;SDS011;22407;42.820;23.374;2023-04-15T02:52:42;10.40;;;3.90;;
31872;SDS011;22407;42.820;23.374;2023-04-15T02:55:08;7.63;;;2.88;;
31872;SDS011;22407;42.820;23.374;2023-04-15T02:57:34;8.10;;;3.23;;
31872;SDS011;22407;42.820;23.374;2023-04-15T03:00:01;10.73;;;3.45;;
31872;SDS011;22407;42.820;23.374;2023-04-15T03:02:27;7.75;;;3.78;;
31872;SDS011;22407;42.820;23.374;2023-04-15T03:04:57;8.98;;;3.75;;
31872;SDS011;22407;42.820;23.374;2023-04-15T03:07:22;8.70;;;3.00;;
31872;SDS011;22407;42.820;23.374;2023-04-15T03:09:47;8.07;;;3.60;;
31872;SDS011;22407;42.820;23.374;2023-04-15T03:12:13;8.47;;;3.60;;
31872;SDS011;22407;42.820;23.374;2023-04-15T03:14:38;9.83;;;3.73;;
31872;SDS011;22407;42.820;23.374;2023-04-15T03:17:03;6.77;;;2.60;;
31872;SDS011;22407;42.820;23.374;2023-04-15T03:19:29;6.43;;;3.00;;
31872;SDS011;22407;42.820;23.374;2023-04-15T03:21:54;8.60;;;3.47;;
31872;SDS011;22407;42.820;23.374;2023-04-15T03:24:19;10.47;;;4.27;;
31872;SDS011;22407;42.820;23.374;2023-04-15T03:26:45;13.87;;;6.40;;
31872;SDS011;22407;42.820;23.374;2023-04-15T03:29:10;10.47;;;4.50;;
31872;SDS011;22407;42.820;23.374;2023-04-15T03:31:36;11.00;;;4.47;;
31872;SDS011;22407;42.820;23.374;2023-04-15T03:34:01;10.27;;;3.90;;
31872;SDS011;22407;42.820;23.374;2023-04-15T03:36:27;8.37;;;3.80;;
31872;SDS011;22407;42.820;23.374;2023-04-15T03:38:53;9.82;;;3.92;;
31872;SDS011;22407;42.820;23.374;2023-04-15T03:41:19;9.57;;;4.05;;
31872;SDS011;22407;42.820;23.374;2023-04-15T03:43:44;11.47;;;4.23;;
31872;SDS011;22407;42.820;23.374;2023-04-15T03:46:09;10.43;;;3.90;;
31872;SDS011;22407;42.820;23.374;2023-04-15T03:48:35;7.97;;;2.77;;
31872;SDS011;22407;42.820;23.374;2023-04-15T03:51:00;8.63;;;3.20;;
31872;SDS011;22407;42.820;23.374;2023-04-15T03:53:26;7.75;;;2.83;;
31872;SDS011;22407;42.820;23.374;2023-04-15T03:55:51;8.00;;;3.37;;
31872;SDS011;22407;42.820;23.374;2023-04-15T03:58:16;8.20;;;3.00;;
31872;SDS011;22407;42.820;23.374;2023-04-15T04:00:42;11.30;;;3.60;;
31872;SDS011;22407;42.820;23.374;2023-04-15T04:03:08;10.10;;;4.33;;
31872;SDS011;22407;42.820;23.374;2023-04-15T04:05:33;9.00;;;3.40;;
31872;SDS011;22407;42.820;23.374;2023-04-15T04:08:01;12.23;;;5.25;;
31872;SDS011;22407;42.820;23.374;2023-04-15T04:10:26;11.37;;;5.10;;
31872;SDS011;22407;42.820;23.374;2023-04-15T04:12:51;19.50;;;7.40;;
31872;SDS011;22407;42.820;23.374;2023-04-15T04:15:16;10.80;;;3.97;;
31872;SDS011;22407;42.820;23.374;2023-04-15T04:17:42;10.57;;;4.23;;
31872;SDS011;22407;42.820;23.374;2023-04-15T04:20:07;20.13;;;7.43;;
31872;SDS011;22407;42.820;23.374;2023-04-15T04:22:36;22.17;;;9.43;;
31872;SDS011;22407;42.820;23.374;2023-04-15T04:25:02;15.23;;;6.53;;
31872;SDS011;22407;42.820;23.374;2023-04-15T04:27:27;16.27;;;7.17;;
31872;SDS011;22407;42.820;23.374;2023-04-15T04:29:52;15.70;;;5.47;;
31872;SDS011;22407;42.820;23.374;2023-04-15T04:32:17;13.73;;;5.57;;
31872;SDS011;22407;42.820;23.374;2023-04-15T04:34:42;16.73;;;5.50;;
31872;SDS011;22407;42.820;23.374;2023-04-15T04:37:08;12.23;;;4.65;;
31872;SDS011;22407;42.820;23.374;2023-04-15T04:39:33;9.93;;;4.50;;
31872;SDS011;22407;42.820;23.374;2023-04-15T04:41:58;9.30;;;4.27;;
31872;SDS011;22407;42.820;23.374;2023-04-15T04:44:25;12.93;;;4.85;;
31872;SDS011;22407;42.820;23.374;2023-04-15T04:46:51;7.97;;;3.57;;
31872;SDS011;22407;42.820;23.374;2023-04-15T04:49:16;9.60;;;4.17;;
31872;SDS011;22407;42.820;23.374;2023-04-15T04:51:41;11.50;;;5.27;;
31872;SDS011;22407;42.820;23.374;2023-04-15T04:54:06;11.82;;;6.15;;
31872;SDS011;22407;42.820;23.374;2023-04-15T04:56:32;24.13;;;12.33;;
31872;SDS011;22407;42.820;23.374;2023-04-15T04:58:58;23.30;;;10.68;;
31872;SDS011;22407;42.820;23.374;2023-04-15T05:01:24;24.67;;;10.53;;
31872;SDS011;22407;42.820;23.374;2023-04-15T05:03:50;28.10;;;12.63;;
31872;SDS011;22407;42.820;23.374;2023-04-15T05:06:16;25.67;;;11.60;;
31872;SDS011;22407;42.820;23.374;2023-04-15T05:08:41;27.37;;;12.63;;
31872;SDS011;22407;42.820;23.374;2023-04-15T05:11:06;23.80;;;10.73;;
31872;SDS011;22407;42.820;23.374;2023-04-15T05:13:31;16.17;;;8.03;;
31872;SDS011;22407;42.820;23.374;2023-04-15T05:15:57;15.97;;;6.63;;
31872;SDS011;22407;42.820;23.374;2023-04-15T05:18:22;18.73;;;8.77;;
31872;SDS011;22407;42.820;23.374;2023-04-15T05:20:48;17.37;;;8.37;;
31872;SDS011;22407;42.820;23.374;2023-04-15T05:23:14;16.98;;;7.60;;
31872;SDS011;22407;42.820;23.374;2023-04-15T05:25:39;23.47;;;11.33;;
31872;SDS011;22407;42.820;23.374;2023-04-15T05:28:05;15.32;;;7.85;;
31872;SDS011;22407;42.820;23.374;2023-04-15T05:30:30;14.60;;;6.70;;
31872;SDS011;22407;42.820;23.374;2023-04-15T05:32:56;11.80;;;5.57;;
31872;SDS011;22407;42.820;23.374;2023-04-15T05:35:21;11.60;;;5.20;;
31872;SDS011;22407;42.820;23.374;2023-04-15T05:37:47;13.68;;;6.20;;
31872;SDS011;22407;42.820;23.374;2023-04-15T05:40:12;13.23;;;5.97;;
31872;SDS011;22407;42.820;23.374;2023-04-15T05:42:37;12.53;;;6.50;;
31872;SDS011;22407;42.820;23.374;2023-04-15T05:45:03;11.60;;;5.07;;
31872;SDS011;22407;42.820;23.374;2023-04-15T05:47:29;13.52;;;5.85;;
31872;SDS011;22407;42.820;23.374;2023-04-15T05:49:55;19.37;;;10.20;;
31872;SDS011;22407;42.820;23.374;2023-04-15T05:52:22;24.98;;;16.15;;
31872;SDS011;22407;42.820;23.374;2023-04-15T05:54:48;14.30;;;9.27;;
31872;SDS011;22407;42.820;23.374;2023-04-15T05:57:13;14.60;;;6.83;;
31872;SDS011;22407;42.820;23.374;2023-04-15T05:59:38;17.33;;;7.77;;
31872;SDS011;22407;42.820;23.374;2023-04-15T06:02:06;9.90;;;4.97;;
31872;SDS011;22407;42.820;23.374;2023-04-15T06:04:31;10.38;;;4.07;;
31872;SDS011;22407;42.820;23.374;2023-04-15T06:06:56;10.97;;;5.60;;
31872;SDS011;22407;42.820;23.374;2023-04-15T06:09:22;11.07;;;6.13;;
31872;SDS011;22407;42.820;23.374;2023-04-15T06:11:47;9.33;;;4.23;;
31872;SDS011;22407;42.820;23.374;2023-04-15T06:14:12;13.10;;;5.40;;
31872;SDS011;22407;42.820;23.374;2023-04-15T06:16:40;9.23;;;4.33;;
31872;SDS011;22407;42.820;23.374;2023-04-15T06:19:06;8.80;;;4.03;;
31872;SDS011;22407;42.820;23.374;2023-04-15T06:21:31;11.23;;;4.03;;
31872;SDS011;22407;42.820;23.374;2023-04-15T06:23:57;11.07;;;5.10;;
31872;SDS011;22407;42.820;23.374;2023-04-15T06:26:23;15.70;;;7.95;;
31872;SDS011;22407;42.820;23.374;2023-04-15T06:28:48;16.30;;;6.80;;
31872;SDS011;22407;42.820;23.374;2023-04-15T06:31:13;11.90;;;5.13;;
31872;SDS011;22407;42.820;23.374;2023-04-15T06:33:38;11.75;;;4.85;;
31872;SDS011;22407;42.820;23.374;2023-04-15T06:36:04;10.00;;;5.53;;
31872;SDS011;22407;42.820;23.374;2023-04-15T06:38:29;11.33;;;5.17;;
31872;SDS011;22407;42.820;23.374;2023-04-15T06:40:55;10.30;;;4.60;;
31872;SDS011;22407;42.820;23.374;2023-04-15T06:43:20;10.67;;;5.00;;
31872;SDS011;22407;42.820;23.374;2023-04-15T06:45:45;20.87;;;7.67;;
31872;SDS011;22407;42.820;23.374;2023-04-15T06:48:11;14.35;;;6.35;;
31872;SDS011;22407;42.820;23.374;2023-04-15T06:50:36;11.83;;;4.73;;
31872;SDS011;22407;42.820;23.374;2023-04-15T06:53:02;12.20;;;7.43;;
31872;SDS011;22407;42.820;23.374;2023-04-15T06:55:27;12.63;;;6.27;;
31872;SDS011;22407;42.820;23.374;2023-04-15T06:57:52;11.47;;;5.33;;
31872;SDS011;22407;42.820;23.374;2023-04-15T07:00:17;11.77;;;5.50;;
31872;SDS011;22407;42.820;23.374;2023-04-15T07:02:43;11.02;;;5.20;;
31872;SDS011;22407;42.820;23.374;2023-04-15T07:05:08;14.43;;;7.30;;
31872;SDS011;22407;42.820;23.374;2023-04-15T07:07:34;22.80;;;10.93;;
31872;SDS011;22407;42.820;23.374;2023-04-15T07:10:00;20.30;;;10.65;;
31872;SDS011;22407;42.820;23.374;2023-04-15T07:12:27;18.70;;;8.48;;
31872;SDS011;22407;42.820;23.374;2023-04-15T07:14:52;15.23;;;6.60;;
31872;SDS011;22407;42.820;23.374;2023-04-15T07:17:17;18.70;;;10.77;;
31872;SDS011;22407;42.820;23.374;2023-04-15T07:19:43;13.60;;;6.00;;
31872;SDS011;22407;42.820;23.374;2023-04-15T07:22:08;11.87;;;5.77;;
31872;SDS011;22407;42.820;23.374;2023-04-15T07:24:33;14.90;;;6.40;;
31872;SDS011;22407;42.820;23.374;2023-04-15T07:26:59;14.02;;;6.68;;
31872;SDS011;22407;42.820;23.374;2023-04-15T07:29:25;14.20;;;5.93;;
31872;SDS011;22407;42.820;23.374;2023-04-15T07:31:51;12.20;;;6.07;;
31872;SDS011;22407;42.820;23.374;2023-04-15T07:34:16;11.03;;;4.90;;
31872;SDS011;22407;42.820;23.374;2023-04-15T07:36:41;9.63;;;3.60;;
31872;SDS011;22407;42.820;23.374;2023-04-15T07:39:07;7.30;;;3.90;;
31872;SDS011;22407;42.820;23.374;2023-04-15T07:41:32;8.43;;;3.63;;
31872;SDS011;22407;42.820;23.374;2023-04-15T07:43:58;8.97;;;3.97;;
31872;SDS011;22407;42.820;23.374;2023-04-15T07:46:23;8.98;;;4.28;;
31872;SDS011;22407;42.820;23.374;2023-04-15T07:48:51;8.63;;;3.53;;
31872;SDS011;22407;42.820;23.374;2023-04-15T07:51:16;7.85;;;2.80;;
31872;SDS011;22407;42.820;23.374;2023-04-15T07:53:41;7.60;;;2.70;;
31872;SDS011;22407;42.820;23.374;2023-04-15T07:56:07;9.20;;;3.40;;
31872;SDS011;22407;42.820;23.374;2023-04-15T07:58:32;8.00;;;3.17;;
31872;SDS011;22407;42.820;23.374;2023-04-15T08:00:57;8.17;;;3.33;;
31872;SDS011;22407;42.820;23.374;2023-04-15T08:03:23;12.67;;;3.90;;
31872;SDS011;22407;42.820;23.374;2023-04-15T08:05:49;7.75;;;2.55;;
31872;SDS011;22407;42.820;23.374;2023-04-15T08:08:14;7.50;;;1.93;;
31872;SDS011;22407;42.820;23.374;2023-04-15T08:10:39;5.73;;;2.53;;
31872;SDS011;22407;42.820;23.374;2023-04-15T08:13:05;9.03;;;2.70;;
31872;SDS011;22407;42.820;23.374;2023-04-15T08:15:30;8.13;;;2.65;;
31872;SDS011;22407;42.820;23.374;2023-04-15T08:17:56;6.30;;;2.50;;
31872;SDS011;22407;42.820;23.374;2023-04-15T08:20:24;8.48;;;2.88;;
31872;SDS011;22407;42.820;23.374;2023-04-15T08:22:50;6.73;;;2.60;;
31872;SDS011;22407;42.820;23.374;2023-04-15T08:25:16;6.83;;;2.77;;
31872;SDS011;22407;42.820;23.374;2023-04-15T08:27:41;7.20;;;2.40;;
31872;SDS011;22407;42.820;23.374;2023-04-15T08:30:07;6.30;;;2.70;;
31872;SDS011;22407;42.820;23.374;2023-04-15T08:32:32;7.28;;;2.42;;
31872;SDS011;22407;42.820;23.374;2023-04-15T08:34:57;8.63;;;2.93;;
31872;SDS011;22407;42.820;23.374;2023-04-15T08:37:23;6.90;;;2.80;;
31872;SDS011;22407;42.820;23.374;2023-04-15T08:39:48;7.10;;;2.30;;
31872;SDS011;22407;42.820;23.374;2023-04-15T08:42:18;5.70;;;1.83;;
31872;SDS011;22407;42.820;23.374;2023-04-15T08:44:47;7.65;;;3.03;;
31872;SDS011;22407;42.820;23.374;2023-04-15T08:47:13;6.43;;;3.15;;
31872;SDS011;22407;42.820;23.374;2023-04-15T08:49:41;8.57;;;3.15;;
31872;SDS011;22407;42.820;23.374;2023-04-15T08:52:07;6.83;;;2.60;;
31872;SDS011;22407;42.820;23.374;2023-04-15T08:54:33;6.28;;;2.53;;
31872;SDS011;22407;42.820;23.374;2023-04-15T08:56:58;8.10;;;2.60;;
31872;SDS011;22407;42.820;23.374;2023-04-15T08:59:24;8.20;;;2.30;;
31872;SDS011;22407;42.820;23.374;2023-04-15T09:01:49;7.17;;;2.07;;
31872;SDS011;22407;42.820;23.374;2023-04-15T09:04:15;10.73;;;2.50;;
31872;SDS011;22407;42.820;23.374;2023-04-15T09:06:41;9.38;;;4.25;;
31872;SDS011;22407;42.820;23.374;2023-04-15T09:09:06;6.30;;;2.47;;
31872;SDS011;22407;42.820;23.374;2023-04-15T09:11:32;6.80;;;2.60;;
31872;SDS011;22407;42.820;23.374;2023-04-15T09:13:57;6.50;;;2.47;;
31872;SDS011;22407;42.820;23.374;2023-04-15T09:16:22;9.47;;;3.70;;
31872;SDS011;22407;42.820;23.374;2023-04-15T09:18:48;8.98;;;3.00;;
31872;SDS011;22407;42.820;23.374;2023-04-15T09:21:14;7.07;;;2.73;;
31872;SDS011;22407;42.820;23.374;2023-04-15T09:23:52;6.18;;;2.10;;
31872;SDS011;22407;42.820;23.374;2023-04-15T09:26:18;7.40;;;2.20;;
31872;SDS011;22407;42.820;23.374;2023-04-15T09:28:43;7.27;;;2.13;;
31872;SDS011;22407;42.820;23.374;2023-04-15T09:31:08;6.10;;;2.80;;
31872;SDS011;22407;42.820;23.374;2023-04-15T09:33:34;6.45;;;2.10;;
31872;SDS011;22407;42.820;23.374;2023-04-15T09:38:25;6.07;;;2.50;;
31872;SDS011;22407;42.820;23.374;2023-04-15T09:40:51;6.83;;;2.20;;
31872;SDS011;22407;42.820;23.374;2023-04-15T09:43:16;7.93;;;2.53;;
31872;SDS011;22407;42.820;23.374;2023-04-15T09:45:51;7.97;;;2.40;;
31872;SDS011;22407;42.820;23.374;2023-04-15T09:48:24;6.38;;;2.42;;
31872;SDS011;22407;42.820;23.374;2023-04-15T09:50:51;6.30;;;2.40;;
31872;SDS011;22407;42.820;23.374;2023-04-15T09:53:21;5.28;;;1.92;;
31872;SDS011;22407;42.820;23.374;2023-04-15T09:55:50;6.35;;;1.92;;
31872;SDS011;22407;42.820;23.374;2023-04-15T09:58:17;6.10;;;1.85;;
31872;SDS011;22407;42.820;23.374;2023-04-15T10:00:42;5.60;;;1.77;;
31872;SDS011;22407;42.820;23.374;2023-04-15T10:03:07;6.30;;;2.00;;
31872;SDS011;22407;42.820;23.374;2023-04-15T10:05:33;6.47;;;1.70;;
31872;SDS011;22407;42.820;23.374;2023-04-15T10:07:58;7.50;;;2.43;;
31872;SDS011;22407;42.820;23.374;2023-04-15T10:10:24;5.65;;;2.00;;
31872;SDS011;22407;42.820;23.374;2023-04-15T10:12:50;7.45;;;2.63;;
31872;SDS011;22407;42.820;23.374;2023-04-15T10:15:16;6.17;;;1.77;;
31872;SDS011;22407;42.820;23.374;2023-04-15T10:17:42;4.97;;;1.58;;
31872;SDS011;22407;42.820;23.374;2023-04-15T10:20:08;7.00;;;2.07;;
31872;SDS011;22407;42.820;23.374;2023-04-15T10:22:34;6.50;;;2.03;;
31872;SDS011;22407;42.820;23.374;2023-04-15T10:25:00;7.00;;;1.85;;
31872;SDS011;22407;42.820;23.374;2023-04-15T10:27:26;5.97;;;2.35;;
31872;SDS011;22407;42.820;23.374;2023-04-15T10:29:53;6.83;;;2.60;;
31872;SDS011;22407;42.820;23.374;2023-04-15T10:32:18;6.28;;;2.70;;
31872;SDS011;22407;42.820;23.374;2023-04-15T10:34:45;5.75;;;2.15;;
31872;SDS011;22407;42.820;23.374;2023-04-15T10:37:11;6.23;;;1.90;;
31872;SDS011;22407;42.820;23.374;2023-04-15T10:42:05;4.47;;;1.60;;
31872;SDS011;22407;42.820;23.374;2023-04-15T10:44:31;6.75;;;2.80;;
31872;SDS011;22407;42.820;23.374;2023-04-15T10:46:56;6.00;;;1.50;;
31872;SDS011;22407;42.820;23.374;2023-04-15T10:49:25;5.27;;;1.87;;
31872;SDS011;22407;42.820;23.374;2023-04-15T10:51:52;5.47;;;1.77;;
31872;SDS011;22407;42.820;23.374;2023-04-15T10:54:30;4.80;;;2.00;;
31872;SDS011;22407;42.820;23.374;2023-04-15T10:59:28;4.77;;;1.60;;
31872;SDS011;22407;42.820;23.374;2023-04-15T11:01:54;6.00;;;1.52;;
31872;SDS011;22407;42.820;23.374;2023-04-15T11:12:50;4.57;;;1.40;;
31872;SDS011;22407;42.820;23.374;2023-04-15T11:17:50;5.80;;;2.65;;
31872;SDS011;22407;42.820;23.374;2023-04-15T11:20:15;5.17;;;2.03;;
31872;SDS011;22407;42.820;23.374;2023-04-15T11:22:48;5.85;;;1.67;;
31872;SDS011;22407;42.820;23.374;2023-04-15T11:25:23;5.20;;;2.35;;
31872;SDS011;22407;42.820;23.374;2023-04-15T11:27:49;4.50;;;1.60;;
31872;SDS011;22407;42.820;23.374;2023-04-15T11:30:18;5.30;;;1.73;;
31872;SDS011;22407;42.820;23.374;2023-04-15T11:32:45;4.57;;;1.80;;
31872;SDS011;22407;42.820;23.374;2023-04-15T11:35:10;6.47;;;2.50;;
31872;SDS011;22407;42.820;23.374;2023-04-15T11:37:35;4.90;;;1.43;;
31872;SDS011;22407;42.820;23.374;2023-04-15T11:40:01;6.40;;;2.13;;
31872;SDS011;22407;42.820;23.374;2023-04-15T11:42:27;4.93;;;1.88;;
31872;SDS011;22407;42.820;23.374;2023-04-15T11:45:05;8.13;;;2.30;;
31872;SDS011;22407;42.820;23.374;2023-04-15T11:47:30;8.05;;;2.72;;
31872;SDS011;22407;42.820;23.374;2023-04-15T11:49:55;6.47;;;1.90;;
31872;SDS011;22407;42.820;23.374;2023-04-15T11:52:21;6.03;;;2.37;;
31872;SDS011;22407;42.820;23.374;2023-04-15T11:54:46;6.30;;;2.08;;
31872;SDS011;22407;42.820;23.374;2023-04-15T11:57:12;5.50;;;2.10;;
31872;SDS011;22407;42.820;23.374;2023-04-15T11:59:43;8.47;;;2.50;;
31872;SDS011;22407;42.820;23.374;2023-04-15T12:02:10;8.90;;;4.13;;
31872;SDS011;22407;42.820;23.374;2023-04-15T12:04:36;11.10;;;4.50;;
31872;SDS011;22407;42.820;23.374;2023-04-15T12:07:05;5.50;;;2.27;;
31872;SDS011;22407;42.820;23.374;2023-04-15T12:09:31;4.63;;;1.80;;
31872;SDS011;22407;42.820;23.374;2023-04-15T12:12:01;5.82;;;1.92;;
31872;SDS011;22407;42.820;23.374;2023-04-15T12:14:27;4.63;;;1.60;;
31872;SDS011;22407;42.820;23.374;2023-04-15T12:21:54;5.00;;;1.63;;
31872;SDS011;22407;42.820;23.374;2023-04-15T12:24:21;4.70;;;1.53;;
31872;SDS011;22407;42.820;23.374;2023-04-15T12:26:48;6.15;;;1.90;;
31872;SDS011;22407;42.820;23.374;2023-04-15T12:29:14;6.45;;;2.03;;
31872;SDS011;22407;42.820;23.374;2023-04-15T12:34:13;7.13;;;1.80;;
31872;SDS011;22407;42.820;23.374;2023-04-15T12:36:39;6.35;;;1.85;;
31872;SDS011;22407;42.820;23.374;2023-04-15T12:39:04;7.03;;;1.97;;
31872;SDS011;22407;42.820;23.374;2023-04-15T12:41:33;5.53;;;2.10;;
31872;SDS011;22407;42.820;23.374;2023-04-15T12:43:58;5.25;;;1.90;;
31872;SDS011;22407;42.820;23.374;2023-04-15T12:46:24;5.68;;;1.88;;
31872;SDS011;22407;42.820;23.374;2023-04-15T12:48:50;4.97;;;1.93;;
31872;SDS011;22407;42.820;23.374;2023-04-15T12:51:17;6.55;;;2.40;;
31872;SDS011;22407;42.820;23.374;2023-04-15T12:53:42;5.90;;;1.70;;
31872;SDS011;22407;42.820;23.374;2023-04-15T12:56:07;4.70;;;1.83;;
31872;SDS011;22407;42.820;23.374;2023-04-15T12:58:32;5.93;;;1.60;;
31872;SDS011;22407;42.820;23.374;2023-04-15T13:00:58;4.90;;;1.70;;
31872;SDS011;22407;42.820;23.374;2023-04-15T13:03:23;6.68;;;1.73;;
31872;SDS011;22407;42.820;23.374;2023-04-15T13:05:48;5.87;;;1.63;;
31872;SDS011;22407;42.820;23.374;2023-04-15T13:08:13;7.10;;;2.20;;
31872;SDS011;22407;42.820;23.374;2023-04-15T13:10:39;6.40;;;2.50;;
31872;SDS011;22407;42.820;23.374;2023-04-15T13:13:06;7.70;;;3.47;;
31872;SDS011;22407;42.820;23.374;2023-04-15T13:15:31;8.80;;;4.20;;
31872;SDS011;22407;42.820;23.374;2023-04-15T13:17:57;7.33;;;1.60;;
31872;SDS011;22407;42.820;23.374;2023-04-15T13:20:22;5.67;;;1.90;;
31872;SDS011;22407;42.820;23.374;2023-04-15T13:22:47;4.27;;;1.40;;
31872;SDS011;22407;42.820;23.374;2023-04-15T13:25:13;5.80;;;2.10;;
31872;SDS011;22407;42.820;23.374;2023-04-15T13:27:38;4.67;;;1.93;;
31872;SDS011;22407;42.820;23.374;2023-04-15T13:30:04;6.57;;;1.97;;
31872;SDS011;22407;42.820;23.374;2023-04-15T13:32:29;4.75;;;1.40;;
31872;SDS011;22407;42.820;23.374;2023-04-15T13:34:55;4.87;;;1.40;;
31872;SDS011;22407;42.820;23.374;2023-04-15T13:37:24;5.90;;;1.80;;
31872;SDS011;22407;42.820;23.374;2023-04-15T13:39:50;5.28;;;1.40;;
31872;SDS011;22407;42.820;23.374;2023-04-15T13:42:15;7.03;;;1.70;;
31872;SDS011;22407;42.820;23.374;2023-04-15T13:44:41;4.55;;;1.40;;
31872;SDS011;22407;42.820;23.374;2023-04-15T13:47:06;6.93;;;1.60;;
31872;SDS011;22407;42.820;23.374;2023-04-15T13:49:31;6.13;;;1.47;;
31872;SDS011;22407;42.820;23.374;2023-04-15T13:51:57;5.72;;;1.75;;
31872;SDS011;22407;42.820;23.374;2023-04-15T13:54:22;6.03;;;2.50;;
31872;SDS011;22407;42.820;23.374;2023-04-15T13:56:48;5.33;;;2.17;;
31872;SDS011;22407;42.820;23.374;2023-04-15T13:59:13;4.27;;;1.20;;
31872;SDS011;22407;42.820;23.374;2023-04-15T14:01:38;4.90;;;1.67;;
31872;SDS011;22407;42.820;23.374;2023-04-15T14:04:05;5.15;;;1.92;;
31872;SDS011;22407;42.820;23.374;2023-04-15T14:06:30;4.13;;;1.57;;
31872;SDS011;22407;42.820;23.374;2023-04-15T14:08:56;5.47;;;1.70;;
31872;SDS011;22407;42.820;23.374;2023-04-15T14:11:21;5.18;;;1.30;;
31872;SDS011;22407;42.820;23.374;2023-04-15T14:13:47;4.30;;;1.37;;
31872;SDS011;22407;42.820;23.374;2023-04-15T14:16:12;4.17;;;1.13;;
31872;SDS011;22407;42.820;23.374;2023-04-15T14:18:37;4.93;;;1.80;;
31872;SDS011;22407;42.820;23.374;2023-04-15T14:21:04;5.53;;;1.70;;
31872;SDS011;22407;42.820;23.374;2023-04-15T14:23:29;7.68;;;2.90;;
31872;SDS011;22407;42.820;23.374;2023-04-15T14:25:54;5.10;;;1.70;;
31872;SDS011;22407;42.820;23.374;2023-04-15T14:28:19;4.47;;;1.50;;
31872;SDS011;22407;42.820;23.374;2023-04-15T14:30:45;4.93;;;1.70;;
31872;SDS011;22407;42.820;23.374;2023-04-15T14:33:10;5.90;;;1.77;;
31872;SDS011;22407;42.820;23.374;2023-04-15T14:35:35;4.43;;;1.90;;
31872;SDS011;22407;42.820;23.374;2023-04-15T14:38:01;4.50;;;1.98;;
31872;SDS011;22407;42.820;23.374;2023-04-15T14:40:27;4.80;;;1.70;;
31872;SDS011;22407;42.820;23.374;2023-04-15T14:42:52;5.27;;;2.13;;
31872;SDS011;22407;42.820;23.374;2023-04-15T14:45:17;5.17;;;1.60;;